Apalachicola, Florida
Current Conditions -  °F | °C
As of 12:53 PM on Saturday 20 Dec 2014 (Local Time) from KAAF Reporting Station
Overcast Overcast  
Wind Chill: 63°   Ceiling: 9500
Heat Index: 63°   Visibility: 10mi
Dew Point: 50°   Wind: 12mph
Humidity: 63%   Direction: 40°NE
Pressure: 30.08"   Gusts: NA
Location:  29.73°N, 84.99°W
Report Text: KAAF 201753Z AUTO 04010KT 10SM BKN095 OVC120 17/10 A3008 RMK AO2 SLP186 T01720100 10172 20122 58015 TSNO
Loading
Personal Weather Stations






























Interactive Weather Map New forecast layout! Learn more

10-Day Weather Forecast

Advertisements
Track Severe Weather on mobile